Ridgeland, Wisconsin
Current Conditions -  °F | °C
As of 7:35 AM on Wednesday 22 Oct 2014 (Local Time) from KY23 Reporting Station
Clear Clear  
Wind Chill: 29°   Ceiling: Unl
Heat Index: 35°   Visibility: 10mi
Dew Point: 33°   Wind: 7mph
Humidity: 92%   Direction: 110°ESE
Pressure: 30.27"   Gusts: NA
Location:  45.2°N, 91.9°W
Report Text: KY23 221235Z AUTO 11006KT 10SM CLR 02/01 A3027 RMK AO2 T00170005
Loading
Personal Weather Stations






























Interactive Weather Map
Tropical Storm Tracking
New forecast layout! Learn more

10-Day Weather Forecast

Advertisements
Track Severe Weather on mobile